Terminal Aerodrome Forecast
Issued by NWS Huntsville, AL

Home | Current Version | Previous Version | Text Only | Print | Product List | Glossary On
Versions: 1 2 3 4 5 6 7 8 9 10 11 12 13 14 15 16 17 18 19 20 21
000
FTUS44 KHUN 272327
TAFHSV
TAF
KHSV 272327Z 2800/2824 06005KT P6SM VCTS SCT060CB
     FM280100 07004KT P6SM SCT050
     FM280900 VRB02KT 5SM BR FEW250
     FM281300 11005KT P6SM SCT040
     FM281800 08007KT P6SM VCTS BKN050CB=

USA.gov is the U.S. government's official web portal to all federal, state and local government web resources and services.